createdAt,value
2019-03-21T00:01:31.154Z,51.25
2019-03-21T00:04:20.600Z,50.30
2019-03-21T00:07:09.485Z,52.10
2019-03-21T00:10:30.782Z,51.10
2019-03-21T00:13:20.083Z,52.45
2019-03-21T00:16:13.664Z,52.45
2019-03-21T00:19:02.419Z,52.25
2019-03-21T00:21:51.647Z,57.83
2019-03-21T00:24:40.497Z,55.58
2019-03-21T00:27:29.975Z,54.30
2019-03-21T00:30:23.569Z,53.92
2019-03-21T00:33:12.508Z,54.98
2019-03-21T00:36:01.833Z,56.53
2019-03-21T00:38:51.341Z,52.65
2019-03-21T00:41:40.426Z,56.55
2019-03-21T00:44:28.859Z,54.63
2019-03-21T00:47:18.419Z,55.48
2019-03-21T00:50:11.852Z,55.20
2019-03-21T00:53:01.398Z,56.92
2019-03-21T00:55:59.288Z,52.98
2019-03-21T00:58:48.544Z,53.38
2019-03-21T01:01:37.332Z,54.93
2019-03-21T01:04:28.760Z,52.60
2019-03-21T01:07:17.890Z,53.10
2019-03-21T01:10:18.103Z,53.17
2019-03-21T01:13:06.721Z,53.25
2019-03-21T01:15:55.683Z,52.20
2019-03-21T01:18:47.659Z,54.45
2019-03-21T01:21:37.118Z,51.50
2019-03-21T01:24:26.522Z,51.50
2019-03-21T01:27:15.732Z,51.63
2019-03-21T01:30:07.494Z,54.13
2019-03-21T01:32:55.854Z,54.40
2019-03-21T01:35:45.420Z,55.10
2019-03-21T01:38:34.736Z,52.73
2019-03-21T01:41:23.520Z,52.98
2019-03-21T01:44:12.880Z,53.10
2019-03-21T01:47:03.017Z,52.48
2019-03-21T01:49:52.589Z,51.80
2019-03-21T01:52:41.742Z,52.03
2019-03-21T01:55:30.458Z,53.70
2019-03-21T01:58:19.519Z,51.40
2019-03-21T02:01:09.084Z,52.35
2019-03-21T02:03:58.395Z,53.52
2019-03-21T02:06:47.904Z,52.80
2019-03-21T02:09:37.096Z,53.08
2019-03-21T02:12:26.460Z,52.48
2019-03-21T02:15:17.805Z,53.25
2019-03-21T02:18:07.118Z,51.88
2019-03-21T02:20:56.088Z,53.25
2019-03-21T02:23:45.493Z,51.15
2019-03-21T02:26:34.700Z,51.48
2019-03-21T02:29:23.957Z,52.53
2019-03-21T02:32:13.291Z,52.67
2019-03-21T02:35:02.162Z,51.30
2019-03-21T02:37:51.605Z,51.58
2019-03-21T02:40:43.449Z,50.48
2019-03-21T02:43:33.001Z,51.10
2019-03-21T02:46:22.426Z,49.93
2019-03-21T02:49:11.859Z,49.42
2019-03-21T02:52:01.081Z,49.48
2019-03-21T02:57:45.798Z,47.88
2019-03-21T03:00:43.876Z,49.40
2019-03-21T03:03:32.944Z,46.40
2019-03-21T03:06:22.096Z,47.65
2019-03-21T03:09:11.338Z,47.70
2019-03-21T03:12:01.251Z,44.80
2019-03-21T03:14:50.944Z,47.93
2019-03-21T03:17:40.673Z,44.80
2019-03-21T03:20:30.001Z,47.15
2019-03-21T03:23:19.212Z,45.45
2019-03-21T03:26:08.425Z,46.65
2019-03-21T03:28:57.867Z,46.30
2019-03-21T03:31:47.175Z,46.63
2019-03-21T03:34:36.174Z,46.05
2019-03-21T03:37:24.796Z,46.15
2019-03-21T03:40:18.459Z,46.33
2019-03-21T03:43:07.417Z,46.70
2019-03-21T03:45:56.494Z,47.40
2019-03-21T03:48:45.973Z,49.48
2019-03-21T03:51:34.989Z,44.73
2019-03-21T03:54:24.603Z,47.08
2019-03-21T03:57:15.195Z,45.10
2019-03-21T04:00:11.039Z,45.43
2019-03-21T04:03:00.554Z,43.70
2019-03-21T04:05:49.873Z,46.35
2019-03-21T04:08:39.230Z,43.92
2019-03-21T04:11:29.029Z,43.43
2019-03-21T04:14:18.513Z,44.42
2019-03-21T04:17:07.700Z,44.13
2019-03-21T04:19:56.532Z,41.55
2019-03-21T04:22:45.741Z,44.03
2019-03-21T04:25:49.196Z,43.42
2019-03-21T04:28:38.400Z,42.53
2019-03-21T04:31:27.430Z,41.42
2019-03-21T04:34:16.790Z,42.15
2019-03-21T04:37:05.973Z,40.92
2019-03-21T04:39:55.293Z,40.20
2019-03-21T04:42:44.629Z,41.37
2019-03-21T04:45:34.023Z,41.40
2019-03-21T04:48:23.245Z,40.40
2019-03-21T04:51:12.325Z,38.75
2019-03-21T04:54:01.374Z,39.15
2019-03-21T04:56:50.477Z,40.80
2019-03-21T04:59:39.593Z,38.80
2019-03-21T05:02:28.511Z,41.80
2019-03-21T05:05:17.124Z,36.80
2019-03-21T05:08:06.230Z,36.55
2019-03-21T05:10:55.873Z,36.20
2019-03-21T05:13:45.243Z,33.25
2019-03-21T05:16:34.240Z,28.95
2019-03-21T05:19:23.374Z,26.45
2019-03-21T05:22:12.496Z,27.05
2019-03-21T05:25:01.392Z,25.90
2019-03-21T05:27:50.252Z,24.57
2019-03-21T05:31:02.362Z,24.52
2019-03-21T05:33:51.051Z,27.15
2019-03-21T05:36:40.231Z,25.70
2019-03-21T05:39:29.342Z,27.32
2019-03-21T05:42:18.996Z,28.00
2019-03-21T05:45:12.443Z,26.55
2019-03-21T05:48:02.281Z,28.62
2019-03-21T05:50:51.716Z,27.67
2019-03-21T05:53:41.113Z,27.10
2019-03-21T05:56:30.295Z,28.50
2019-03-21T05:59:19.838Z,30.30
2019-03-21T06:02:09.342Z,31.55
2019-03-21T06:04:58.259Z,31.23
2019-03-21T06:08:01.199Z,31.30
2019-03-21T06:10:50.593Z,30.90
2019-03-21T06:13:39.537Z,32.63
2019-03-21T06:16:37.194Z,31.23
2019-03-21T06:19:41.826Z,32.30
2019-03-21T06:22:52.707Z,31.87
2019-03-21T06:26:15.882Z,32.70
2019-03-21T06:29:05.339Z,33.40
2019-03-21T06:31:54.104Z,33.88
2019-03-21T06:34:42.749Z,31.85
2019-03-21T06:37:32.081Z,29.77
2019-03-21T06:40:20.888Z,31.23
2019-03-21T06:43:10.609Z,29.87
2019-03-21T06:45:59.832Z,29.25
2019-03-21T06:48:49.095Z,31.93
2019-03-21T06:51:38.367Z,30.70
2019-03-21T06:54:27.209Z,31.75
2019-03-21T06:57:16.700Z,31.23
2019-03-21T07:00:09.260Z,32.65
2019-03-21T07:02:58.302Z,31.25
2019-03-21T07:05:47.482Z,32.25
2019-03-21T07:08:37.178Z,31.40
2019-03-21T07:11:26.299Z,33.00
2019-03-21T07:14:15.616Z,30.40
2019-03-21T07:17:05.071Z,29.32
2019-03-21T07:19:54.442Z,33.88
2019-03-21T07:22:44.022Z,30.17
2019-03-21T07:25:33.369Z,30.27
2019-03-21T07:28:23.075Z,29.10
2019-03-21T07:31:11.849Z,30.20
2019-03-21T07:34:01.200Z,28.67
2019-03-21T07:36:50.394Z,28.17
2019-03-21T07:39:40.766Z,27.52
2019-03-21T07:42:30.025Z,25.97
2019-03-21T07:45:19.098Z,29.15
2019-03-21T07:48:08.147Z,26.65
2019-03-21T07:50:57.549Z,27.25
2019-03-21T07:53:46.486Z,29.40
2019-03-21T07:56:35.656Z,28.25
2019-03-21T07:59:24.547Z,30.17
2019-03-21T08:02:13.598Z,29.92
2019-03-21T08:05:02.664Z,28.30
2019-03-21T08:07:51.717Z,27.45
2019-03-21T08:10:40.747Z,25.02
2019-03-21T08:13:30.063Z,27.50
2019-03-21T08:16:18.789Z,27.00
2019-03-21T08:19:07.973Z,27.60
2019-03-21T08:21:56.822Z,25.23
2019-03-21T08:24:45.822Z,26.68
2019-03-21T08:27:35.192Z,24.45
2019-03-21T08:30:29.248Z,22.50
2019-03-21T08:33:17.980Z,19.75
2019-03-21T08:36:06.950Z,20.02
2019-03-21T08:38:56.008Z,18.73
2019-03-21T08:41:45.109Z,18.65
2019-03-21T08:44:34.163Z,19.30
2019-03-21T08:47:23.350Z,18.20
2019-03-21T08:50:13.323Z,17.27
2019-03-21T08:53:02.679Z,17.00
2019-03-21T08:55:51.990Z,18.70
2019-03-21T08:58:40.857Z,16.80
2019-03-21T09:01:30.201Z,18.62
2019-03-21T09:04:19.171Z,17.17
2019-03-21T09:07:08.023Z,18.23
2019-03-21T09:09:56.874Z,18.70
2019-03-21T09:12:45.934Z,18.23
2019-03-21T09:15:35.225Z,18.23
2019-03-21T09:18:24.586Z,18.85
2019-03-21T09:21:19.729Z,18.50
2019-03-21T09:24:04.549Z,18.52
2019-03-21T09:26:53.455Z,18.23
2019-03-21T09:29:53.014Z,17.77
2019-03-21T09:32:33.803Z,16.23
2019-03-21T09:35:23.163Z,17.30
2019-03-21T09:38:12.165Z,18.10
2019-03-21T09:41:00.985Z,16.37
2019-03-21T09:43:50.094Z,15.93
2019-03-21T09:46:50.091Z,16.02
2019-03-21T09:49:29.184Z,16.95
2019-03-21T09:52:18.582Z,17.67
2019-03-21T09:55:08.406Z,16.65
2019-03-21T09:57:57.625Z,16.10
2019-03-21T10:00:47.110Z,16.27
2019-03-21T10:03:36.262Z,17.15
2019-03-21T10:06:25.098Z,18.70
2019-03-21T10:09:13.991Z,17.45
2019-03-21T10:12:03.734Z,16.95
2019-03-21T10:14:53.359Z,16.90
2019-03-21T10:17:42.763Z,17.25
2019-03-21T10:20:32.292Z,17.82
2019-03-21T10:23:21.239Z,17.50
2019-03-21T10:26:10.519Z,19.48
2019-03-21T10:29:00.096Z,17.98
2019-03-21T10:31:49.434Z,18.55
2019-03-21T10:34:39.350Z,17.85
2019-03-21T10:37:28.083Z,18.87
2019-03-21T10:40:17.378Z,18.60
2019-03-21T10:43:07.031Z,18.62
2019-03-21T10:45:56.127Z,19.37
2019-03-21T10:48:45.171Z,19.23
2019-03-21T10:51:34.678Z,18.98
2019-03-21T10:54:23.824Z,19.23
2019-03-21T10:57:13.304Z,18.82
2019-03-21T11:00:02.464Z,19.12
2019-03-21T11:02:52.458Z,19.90
2019-03-21T11:05:42.134Z,19.70
2019-03-21T11:08:30.882Z,19.55
2019-03-21T11:11:20.267Z,18.62
2019-03-21T11:14:09.149Z,19.27
2019-03-21T11:16:58.806Z,18.62
2019-03-21T11:19:47.613Z,19.12
2019-03-21T11:22:37.137Z,19.25
2019-03-21T11:25:26.343Z,19.75
2019-03-21T11:28:17.758Z,20.72
2019-03-21T11:31:06.214Z,19.55
2019-03-21T11:33:55.662Z,21.15
2019-03-21T11:36:45.023Z,19.40
2019-03-21T11:39:34.189Z,19.70
2019-03-21T11:42:23.426Z,20.12
2019-03-21T11:45:12.526Z,22.05
2019-03-21T11:48:01.657Z,19.32
2019-03-21T11:50:50.867Z,22.22
2019-03-21T11:53:39.700Z,19.42
2019-03-21T11:56:29.091Z,18.57
2019-03-21T11:59:17.907Z,19.40
2019-03-21T12:02:07.227Z,18.60
2019-03-21T12:04:56.394Z,17.60
2019-03-21T12:07:45.700Z,19.52
2019-03-21T12:10:34.779Z,19.10
2019-03-21T12:13:24.133Z,19.32
2019-03-21T12:16:13.074Z,18.45
2019-03-21T12:19:02.302Z,20.20
2019-03-21T12:21:50.946Z,18.37
2019-03-21T12:24:39.858Z,17.23
2019-03-21T12:27:29.421Z,17.05
2019-03-21T12:30:34.513Z,16.15
2019-03-21T12:33:23.686Z,17.02
2019-03-21T12:36:13.209Z,15.70
2019-03-21T12:39:02.613Z,16.20
2019-03-21T12:41:51.541Z,15.63
2019-03-21T12:44:40.600Z,15.95
2019-03-21T12:47:31.443Z,15.03
2019-03-21T12:50:21.077Z,14.83
2019-03-21T12:53:10.563Z,14.90
2019-03-21T12:55:59.714Z,14.60
2019-03-21T12:58:49.256Z,14.95
2019-03-21T13:01:38.249Z,15.28
2019-03-21T13:04:27.743Z,15.18
2019-03-21T13:07:17.310Z,15.58
2019-03-21T13:10:10.669Z,14.35
2019-03-21T13:12:59.570Z,15.38
2019-03-21T13:15:48.625Z,16.10
2019-03-21T13:18:37.607Z,16.23
2019-03-21T13:21:26.537Z,16.20
2019-03-21T13:24:19.169Z,15.60
2019-03-21T13:27:06.790Z,16.32
2019-03-21T13:29:56.189Z,15.45
2019-03-21T13:32:47.028Z,15.32
2019-03-21T13:35:37.301Z,16.80
2019-03-21T13:38:26.338Z,17.05
2019-03-21T13:41:15.724Z,16.97
2019-03-21T13:44:04.611Z,16.67
2019-03-21T13:46:53.960Z,16.85
2019-03-21T13:49:43.263Z,16.23
2019-03-21T13:52:33.214Z,15.95
2019-03-21T13:55:21.755Z,16.20
2019-03-21T13:58:10.354Z,16.02
2019-03-21T14:00:59.271Z,18.07
2019-03-21T14:03:48.389Z,16.05
2019-03-21T14:06:37.877Z,16.27
2019-03-21T14:09:27.019Z,17.60
2019-03-21T14:12:16.658Z,17.02
2019-03-21T14:15:09.515Z,16.85
2019-03-21T14:17:58.278Z,16.77
2019-03-21T14:20:47.415Z,16.77
2019-03-21T14:23:43.293Z,17.57
2019-03-21T14:26:27.315Z,16.45
2019-03-21T14:29:16.684Z,17.45
2019-03-21T14:32:05.137Z,17.82
2019-03-21T14:34:53.983Z,16.73
2019-03-21T14:37:43.193Z,16.40
2019-03-21T14:40:32.534Z,16.27
2019-03-21T14:43:22.097Z,17.15
2019-03-21T14:46:11.094Z,16.42
2019-03-21T14:49:00.233Z,15.55
2019-03-21T14:51:49.001Z,17.67
2019-03-21T14:54:38.467Z,17.27
2019-03-21T14:57:27.735Z,16.80
2019-03-21T15:00:21.014Z,17.00
2019-03-21T15:03:09.735Z,16.65
2019-03-21T15:05:59.550Z,16.37
2019-03-21T15:08:48.026Z,15.85
2019-03-21T15:11:36.893Z,17.20
2019-03-21T15:14:25.818Z,17.65
2019-03-21T15:17:15.084Z,17.98
2019-03-21T15:20:07.357Z,17.90
2019-03-21T15:22:57.766Z,18.73
2019-03-21T15:25:47.299Z,17.02
2019-03-21T15:28:36.818Z,16.77
2019-03-21T15:31:25.418Z,16.55
2019-03-21T15:34:14.751Z,17.12
2019-03-21T15:37:03.662Z,17.20
2019-03-21T15:39:52.434Z,19.42
2019-03-21T15:42:41.789Z,17.45
2019-03-21T15:45:30.268Z,16.42
2019-03-21T15:48:21.065Z,15.95
2019-03-21T15:51:10.994Z,18.00
2019-03-21T15:54:00.213Z,17.48
2019-03-21T15:56:49.565Z,16.65
2019-03-21T15:59:38.959Z,17.87
2019-03-21T16:02:28.608Z,15.98
2019-03-21T16:05:17.943Z,19.10
2019-03-21T16:08:09.165Z,17.12
2019-03-21T16:10:58.735Z,17.52
2019-03-21T16:13:48.055Z,16.23
2019-03-21T16:16:37.435Z,19.50
2019-03-21T16:19:26.788Z,18.17
2019-03-21T16:22:16.030Z,19.05
2019-03-21T16:25:07.798Z,19.42
2019-03-21T16:27:56.470Z,17.62
2019-03-21T16:30:45.298Z,18.98
2019-03-21T16:33:34.464Z,16.35
2019-03-21T16:36:23.311Z,17.15
2019-03-21T16:39:12.798Z,19.42
2019-03-21T16:42:02.687Z,16.55
2019-03-21T16:44:51.955Z,16.97
2019-03-21T16:47:40.803Z,18.15
2019-03-21T16:50:29.676Z,18.75
2019-03-21T16:53:18.699Z,19.07
2019-03-21T16:56:08.418Z,19.12
2019-03-21T16:58:58.880Z,18.60
2019-03-21T17:01:48.396Z,20.65
2019-03-21T17:04:36.923Z,20.88
2019-03-21T17:07:26.311Z,18.92
2019-03-21T17:10:16.732Z,18.45
2019-03-21T17:13:07.562Z,20.15
2019-03-21T17:15:56.800Z,19.17
2019-03-21T17:18:45.759Z,18.30
2019-03-21T17:21:34.502Z,19.37
2019-03-21T17:24:29.279Z,18.75
2019-03-21T17:27:14.678Z,20.08
2019-03-21T17:30:05.573Z,17.75
2019-03-21T17:32:54.780Z,20.85
2019-03-21T17:35:44.022Z,21.50
2019-03-21T17:38:33.296Z,19.98
2019-03-21T17:41:22.456Z,21.82
2019-03-21T17:44:11.731Z,18.42
2019-03-21T17:47:01.407Z,17.42
2019-03-21T17:49:50.292Z,19.82
2019-03-21T17:52:39.542Z,19.50
2019-03-21T17:55:28.694Z,18.48
2019-03-21T17:58:18.301Z,23.57
2019-03-21T18:01:07.397Z,18.92
2019-03-21T18:03:57.334Z,19.90
2019-03-21T18:06:46.303Z,23.05
2019-03-21T18:09:35.884Z,20.90
2019-03-21T18:12:25.346Z,20.15
2019-03-21T18:15:13.887Z,22.58
2019-03-21T18:18:03.221Z,19.77
2019-03-21T18:20:52.253Z,21.73
2019-03-21T18:23:41.780Z,24.35
2019-03-21T18:26:30.297Z,22.32
2019-03-21T18:29:19.122Z,20.08
2019-03-21T18:32:08.801Z,20.43
2019-03-21T18:34:57.721Z,21.90
2019-03-21T18:37:47.035Z,23.15
2019-03-21T18:40:35.617Z,23.92
2019-03-21T18:43:25.059Z,20.72
2019-03-21T18:46:13.804Z,28.57
2019-03-21T18:49:03.156Z,21.42
2019-03-21T18:51:52.358Z,24.77
2019-03-21T18:54:41.633Z,24.32
2019-03-21T18:57:31.201Z,22.10
2019-03-21T19:00:21.791Z,21.42
2019-03-21T19:03:10.838Z,28.17
2019-03-21T19:05:59.433Z,21.00
2019-03-21T19:08:48.709Z,22.67
2019-03-21T19:11:37.789Z,21.42
2019-03-21T19:14:27.246Z,22.80
2019-03-21T19:17:16.599Z,22.93
2019-03-21T19:20:09.718Z,27.30
2019-03-21T19:22:59.335Z,23.10
2019-03-21T19:25:48.340Z,23.32
2019-03-21T19:28:37.564Z,46.00
2019-03-21T19:31:26.925Z,194.13
2019-03-21T19:34:16.518Z,22.65
2019-03-21T19:37:05.225Z,27.98
2019-03-21T19:39:54.745Z,21.02
2019-03-21T19:42:44.126Z,24.60
2019-03-21T19:45:32.546Z,27.48
2019-03-21T19:48:21.226Z,23.73
2019-03-21T19:51:10.365Z,33.02
2019-03-21T19:53:59.940Z,39.08
2019-03-21T19:56:49.539Z,42.95
2019-03-21T19:59:40.712Z,28.40
2019-03-21T20:02:30.204Z,31.00
2019-03-21T20:05:19.070Z,25.25
2019-03-21T20:08:08.576Z,27.37
2019-03-21T20:10:57.635Z,25.90
2019-03-21T20:13:46.900Z,32.20
2019-03-21T20:16:37.526Z,30.30
2019-03-21T20:19:27.271Z,29.20
2019-03-21T20:22:15.967Z,28.27
2019-03-21T20:25:07.343Z,31.40
2019-03-21T20:27:56.627Z,38.75
2019-03-21T20:30:45.635Z,36.58
2019-03-21T20:33:35.381Z,29.40
2019-03-21T20:36:24.740Z,32.35
2019-03-21T20:39:14.316Z,32.00
2019-03-21T20:42:03.131Z,46.25
2019-03-21T20:44:52.855Z,28.67
2019-03-21T20:47:42.025Z,31.07
2019-03-21T20:50:31.101Z,34.50
2019-03-21T20:53:20.579Z,34.55
2019-03-21T20:56:09.944Z,32.65
2019-03-21T20:58:59.309Z,30.48
2019-03-21T21:01:48.797Z,33.02
2019-03-21T21:04:37.756Z,36.63
2019-03-21T21:07:26.631Z,30.70
2019-03-21T21:10:16.425Z,29.25
2019-03-21T21:13:05.534Z,33.73
2019-03-21T21:15:54.749Z,32.73
2019-03-21T21:18:44.098Z,32.50
2019-03-21T21:21:32.879Z,30.48
2019-03-21T21:24:22.330Z,35.58
2019-03-21T21:27:13.466Z,39.10
2019-03-21T21:30:03.735Z,29.57
2019-03-21T21:32:52.600Z,30.15
2019-03-21T21:35:41.979Z,32.45
2019-03-21T21:38:31.230Z,32.20
2019-03-21T21:41:20.501Z,31.65
2019-03-21T21:44:10.063Z,33.18
2019-03-21T21:46:59.501Z,32.50
2019-03-21T21:49:48.823Z,31.23
2019-03-21T21:52:42.219Z,32.50
2019-03-21T21:55:28.482Z,34.13
2019-03-21T21:58:17.440Z,42.48
2019-03-21T22:01:07.011Z,31.73
2019-03-21T22:04:04.621Z,32.08
2019-03-21T22:06:47.676Z,59.80
2019-03-21T22:09:37.185Z,31.23
2019-03-21T22:12:26.087Z,31.07
2019-03-21T22:15:18.803Z,31.82
2019-03-21T22:18:07.938Z,32.33
2019-03-21T22:20:57.091Z,31.42
2019-03-21T22:23:45.515Z,33.83
2019-03-21T22:26:34.639Z,33.10
2019-03-21T22:29:23.920Z,35.03
2019-03-21T22:32:13.288Z,34.85
2019-03-21T22:35:02.721Z,31.65
2019-03-21T22:37:51.240Z,35.65
2019-03-21T22:40:40.896Z,34.92
2019-03-21T22:43:30.233Z,33.75
2019-03-21T22:46:19.436Z,34.03
2019-03-21T22:49:08.697Z,29.95
2019-03-21T22:51:58.114Z,31.40
2019-03-21T22:54:47.242Z,31.35
2019-03-21T22:57:36.468Z,33.00
2019-03-21T23:00:29.875Z,35.48
2019-03-21T23:03:19.144Z,32.30
2019-03-21T23:06:08.415Z,29.60
2019-03-21T23:08:57.292Z,30.32
2019-03-21T23:11:46.131Z,30.70
2019-03-21T23:14:35.361Z,29.20
2019-03-21T23:17:24.556Z,27.80
2019-03-21T23:20:15.893Z,30.80
2019-03-21T23:23:05.102Z,34.65
2019-03-21T23:25:54.356Z,33.38
2019-03-21T23:28:43.658Z,30.80
2019-03-21T23:31:33.072Z,32.55
2019-03-21T23:34:22.243Z,31.52
2019-03-21T23:37:11.092Z,27.40
2019-03-21T23:40:00.094Z,28.52
2019-03-21T23:42:49.426Z,28.70
2019-03-21T23:45:38.748Z,28.52
2019-03-21T23:48:28.181Z,32.85
2019-03-21T23:51:17.541Z,29.65
2019-03-21T23:54:06.798Z,26.75
2019-03-21T23:57:04.632Z,30.80
2019-03-21T23:59:47.177Z,29.35
